GCHI

Hierro Airport

El Hierro Island, Spain
METAR GCHI 271130Z 02012KT 340V060 9999 FEW030 22/15 Q1022
Observed Flight Rules
May-27 @ 11:30 UTC (31 minutes ago) Visual Flight Rules
Wind Visibility Clouds
20° at 12 knots 10,000+ meters
  • Few at 3,000' AGL
Temperatures Readings
Current 22°C / 72°F
Dewpoint 15°C / 59°F
Humidity 65%
Altimeter 30.18" Hg
Pressure 1022 hPa
Elevation 30
METAR GCHI 271130Z 02012KT 340V060 9999 FEW030 22/15 Q1022
Observed Flight Rules
May-27 @ 11:30 UTC
(31 minutes ago)
VFR
Wind Visibility
20° at 12 knots 10,000+ meters
Clouds
  • Few at 3,000' AGL
Temperature Dewpoint
22°C / 72°F 15°C / 59°F
Humidity Altimeter Pressure
65% 30.18" Hg 1022 hPa